createdAt,value
2019-03-09T00:02:21.854Z,94.50
2019-03-09T00:04:52.476Z,94.60
2019-03-09T00:07:24.850Z,94.70
2019-03-09T00:09:56.860Z,95.40
2019-03-09T00:12:27.401Z,95.70
2019-03-09T00:14:57.910Z,96.30
2019-03-09T00:17:35.335Z,96.70
2019-03-09T00:20:06.167Z,96.10
2019-03-09T00:22:36.816Z,96.30
2019-03-09T00:25:17.176Z,96.10
2019-03-09T00:27:52.963Z,96.10
2019-03-09T00:30:31.214Z,96.00
2019-03-09T00:33:05.955Z,96.10
2019-03-09T00:35:36.488Z,96.50
2019-03-09T00:38:07.628Z,96.70
2019-03-09T00:40:38.263Z,96.50
2019-03-09T00:43:10.348Z,97.00
2019-03-09T00:45:40.891Z,96.50
2019-03-09T00:48:15.780Z,96.10
2019-03-09T00:50:46.279Z,96.10
2019-03-09T00:53:22.043Z,96.20
2019-03-09T00:55:52.895Z,95.80
2019-03-09T00:58:25.949Z,96.00
2019-03-09T01:00:56.407Z,95.90
2019-03-09T01:03:29.139Z,96.00
2019-03-09T01:06:00.352Z,96.20
2019-03-09T01:08:32.669Z,96.00
2019-03-09T01:11:06.671Z,96.30
2019-03-09T01:13:39.143Z,96.90
2019-03-09T01:16:13.255Z,97.40
2019-03-09T01:18:43.845Z,97.50
2019-03-09T01:21:14.416Z,98.20
2019-03-09T01:23:44.880Z,98.10
2019-03-09T01:26:16.188Z,98.40
2019-03-09T01:28:50.448Z,97.90
2019-03-09T01:31:22.472Z,97.60
2019-03-09T01:33:54.988Z,97.70
2019-03-09T01:36:25.626Z,97.70
2019-03-09T01:38:56.608Z,97.70
2019-03-09T01:41:29.952Z,98.00
2019-03-09T01:44:02.755Z,98.40
2019-03-09T01:46:33.384Z,98.50
2019-03-09T01:49:05.496Z,98.60
2019-03-09T01:51:36.268Z,99.20
2019-03-09T01:54:07.207Z,98.10
2019-03-09T01:56:46.167Z,98.50
2019-03-09T01:59:16.614Z,98.50
2019-03-09T02:01:47.345Z,98.50
2019-03-09T02:04:20.907Z,98.60
2019-03-09T02:06:51.788Z,98.20
2019-03-09T02:09:29.744Z,98.20
2019-03-09T02:12:01.376Z,97.80
2019-03-09T02:14:33.029Z,97.90
2019-03-09T02:17:06.519Z,97.90
2019-03-09T02:19:39.095Z,97.80
2019-03-09T02:22:11.658Z,97.60
2019-03-09T02:24:42.381Z,97.60
2019-03-09T02:27:14.544Z,97.20
2019-03-09T02:29:45.028Z,97.90
2019-03-09T02:32:15.524Z,97.70
2019-03-09T02:34:48.097Z,97.50
2019-03-09T02:37:18.535Z,97.30
2019-03-09T02:39:57.524Z,97.50
2019-03-09T02:42:32.315Z,97.50
2019-03-09T02:45:09.313Z,97.20
2019-03-09T02:47:45.093Z,97.30
2019-03-09T02:50:20.952Z,97.40
2019-03-09T02:52:52.019Z,97.40
2019-03-09T02:55:28.877Z,97.30
2019-03-09T02:57:59.381Z,97.50
2019-03-09T03:00:32.569Z,97.50
2019-03-09T03:03:04.838Z,97.50
2019-03-09T03:05:35.357Z,97.70
2019-03-09T03:08:06.458Z,97.40
2019-03-09T03:10:38.864Z,97.30
2019-03-09T03:13:09.748Z,97.10
2019-03-09T03:15:46.645Z,97.80
2019-03-09T03:18:17.177Z,97.40
2019-03-09T03:20:47.729Z,97.50
2019-03-09T03:23:18.320Z,97.60
2019-03-09T03:25:48.838Z,97.40
2019-03-09T03:28:19.399Z,97.60
2019-03-09T03:30:53.357Z,97.70
2019-03-09T03:33:24.240Z,97.70
2019-03-09T03:35:58.796Z,97.60
2019-03-09T03:38:30.379Z,98.20
2019-03-09T03:41:01.103Z,98.10
2019-03-09T03:43:35.489Z,98.20
2019-03-09T03:46:08.564Z,98.30
2019-03-09T03:48:40.589Z,98.20
2019-03-09T03:51:16.087Z,98.20
2019-03-09T03:53:46.592Z,98.30
2019-03-09T03:56:18.394Z,98.40
2019-03-09T03:58:54.171Z,98.60
2019-03-09T04:01:24.763Z,98.30
2019-03-09T04:03:58.331Z,98.60
2019-03-09T04:06:32.000Z,98.60
2019-03-09T04:09:02.750Z,98.70
2019-03-09T04:11:36.374Z,99.10
2019-03-09T04:14:08.432Z,99.40
2019-03-09T04:16:38.956Z,99.50
2019-03-09T04:19:15.676Z,99.60
2019-03-09T04:21:46.136Z,99.90
2019-03-09T04:24:19.402Z,99.90
2019-03-09T04:26:51.763Z,99.90
2019-03-09T04:29:27.208Z,99.90
2019-03-09T04:31:58.434Z,99.90
2019-03-09T04:34:28.963Z,99.90
2019-03-09T04:37:01.612Z,99.90
2019-03-09T04:39:34.811Z,99.90
2019-03-09T04:42:07.796Z,99.90
2019-03-09T04:44:38.493Z,99.90
2019-03-09T04:47:09.060Z,99.90
2019-03-09T04:49:42.487Z,99.90
2019-03-09T04:52:12.927Z,99.90
2019-03-09T04:54:47.192Z,99.90
2019-03-09T04:57:19.382Z,99.90
2019-03-09T04:59:50.048Z,99.90
2019-03-09T05:02:20.915Z,99.90
2019-03-09T05:04:54.205Z,99.90
2019-03-09T05:07:38.713Z,99.90
2019-03-09T05:10:12.961Z,99.90
2019-03-09T05:12:43.832Z,99.90
2019-03-09T05:15:18.670Z,99.90
2019-03-09T05:17:49.181Z,99.90
2019-03-09T05:20:25.054Z,99.90
2019-03-09T05:22:55.955Z,99.90
2019-03-09T05:25:26.444Z,99.90
2019-03-09T05:28:02.875Z,99.90
2019-03-09T05:30:46.375Z,99.90
2019-03-09T05:33:22.386Z,99.90
2019-03-09T05:35:53.196Z,99.90
2019-03-09T05:38:26.845Z,99.90
2019-03-09T05:41:12.716Z,99.90
2019-03-09T05:43:44.269Z,99.90
2019-03-09T05:46:17.997Z,99.90
2019-03-09T05:48:51.677Z,99.90
2019-03-09T05:51:22.803Z,99.90
2019-03-09T05:53:55.114Z,99.90
2019-03-09T05:56:25.767Z,99.90
2019-03-09T05:58:56.672Z,99.90
2019-03-09T06:01:27.262Z,99.90
2019-03-09T06:03:57.908Z,99.90
2019-03-09T06:06:28.491Z,99.90
2019-03-09T06:09:00.631Z,99.90
2019-03-09T06:11:33.341Z,99.90
2019-03-09T06:14:06.977Z,99.90
2019-03-09T06:16:38.033Z,99.90
2019-03-09T06:19:08.764Z,99.90
2019-03-09T06:21:39.732Z,99.90
2019-03-09T06:24:10.315Z,99.90
2019-03-09T06:26:41.009Z,99.90
2019-03-09T06:29:11.663Z,99.90
2019-03-09T06:32:07.189Z,99.90
2019-03-09T06:34:37.919Z,99.90
2019-03-09T06:37:15.207Z,99.90
2019-03-09T06:39:50.651Z,99.90
2019-03-09T06:42:34.382Z,99.90
2019-03-09T06:45:09.646Z,99.90
2019-03-09T06:47:40.283Z,99.90
2019-03-09T06:50:15.409Z,99.90
2019-03-09T06:52:54.963Z,99.90
2019-03-09T06:55:29.229Z,99.90
2019-03-09T06:58:00.054Z,99.90
2019-03-09T07:00:33.276Z,99.90
2019-03-09T07:03:04.211Z,99.90
2019-03-09T07:05:41.480Z,99.90
2019-03-09T07:08:17.718Z,99.90
2019-03-09T07:10:53.172Z,99.90
2019-03-09T07:13:28.540Z,99.90
2019-03-09T07:15:59.467Z,99.90
2019-03-09T07:18:35.616Z,99.90
2019-03-09T07:21:09.518Z,99.90
2019-03-09T07:23:40.406Z,99.90
2019-03-09T07:26:12.490Z,99.90
2019-03-09T07:28:43.364Z,99.90
2019-03-09T07:31:13.983Z,99.90
2019-03-09T07:33:50.234Z,99.90
2019-03-09T07:36:21.237Z,99.90
2019-03-09T07:38:52.353Z,99.90
2019-03-09T07:41:26.026Z,99.90
2019-03-09T07:43:59.398Z,99.90
2019-03-09T07:46:30.073Z,99.90
2019-03-09T07:49:02.747Z,99.90
2019-03-09T07:51:35.028Z,99.90
2019-03-09T07:54:08.438Z,99.90
2019-03-09T07:56:40.216Z,99.90
2019-03-09T07:59:10.970Z,99.90
2019-03-09T08:01:41.512Z,99.90
2019-03-09T08:04:12.532Z,99.90
2019-03-09T08:06:43.107Z,99.90
2019-03-09T08:09:15.188Z,99.90
2019-03-09T08:11:45.724Z,99.90
2019-03-09T08:14:18.488Z,99.90
2019-03-09T08:16:49.797Z,99.90
2019-03-09T08:19:23.494Z,99.90
2019-03-09T08:21:55.040Z,99.90
2019-03-09T08:24:25.893Z,99.90
2019-03-09T08:26:59.306Z,99.90
2019-03-09T08:29:32.091Z,99.90
2019-03-09T08:32:13.463Z,99.90
2019-03-09T08:34:44.339Z,99.90
2019-03-09T08:37:14.872Z,99.90
2019-03-09T08:39:45.832Z,99.90
2019-03-09T08:42:16.410Z,99.90
2019-03-09T08:44:47.122Z,99.90
2019-03-09T08:47:17.802Z,99.90
2019-03-09T08:49:53.990Z,99.90
2019-03-09T08:52:26.295Z,99.90
2019-03-09T08:54:57.247Z,99.90
2019-03-09T08:57:32.204Z,99.90
2019-03-09T09:00:02.835Z,99.90
2019-03-09T09:02:33.772Z,99.90
2019-03-09T09:05:09.031Z,99.90
2019-03-09T09:07:43.177Z,99.90
2019-03-09T09:10:15.618Z,99.90
2019-03-09T09:12:46.481Z,99.90
2019-03-09T09:15:22.892Z,99.90
2019-03-09T09:17:53.672Z,99.90
2019-03-09T09:20:31.608Z,99.90
2019-03-09T09:23:02.471Z,99.90
2019-03-09T09:25:35.171Z,99.90
2019-03-09T09:32:12.137Z,99.90
2019-03-09T09:34:43.097Z,99.90
2019-03-09T09:37:17.086Z,99.90
2019-03-09T09:39:50.650Z,99.90
2019-03-09T09:42:30.172Z,99.90
2019-03-09T09:45:17.913Z,98.00
2019-03-09T09:47:53.662Z,93.50
2019-03-09T09:50:24.990Z,95.60
2019-03-09T09:52:58.719Z,96.50
2019-03-09T09:55:32.581Z,98.80
2019-03-09T09:58:04.131Z,99.90
2019-03-09T10:00:39.875Z,99.40
2019-03-09T10:03:10.770Z,98.60
2019-03-09T10:05:41.994Z,92.70
2019-03-09T10:08:13.261Z,87.70
2019-03-09T10:10:44.167Z,88.60
2019-03-09T10:17:14.466Z,93.70
2019-03-09T10:19:45.666Z,94.30
2019-03-09T10:22:19.605Z,95.00
2019-03-09T10:24:52.853Z,96.20
2019-03-09T10:27:25.769Z,99.40
2019-03-09T10:29:56.487Z,97.30
2019-03-09T10:32:29.379Z,96.40
2019-03-09T10:35:03.056Z,95.40
2019-03-09T10:37:38.586Z,97.10
2019-03-09T10:40:10.272Z,98.90
2019-03-09T10:42:44.276Z,99.90
2019-03-09T10:45:15.148Z,99.90
2019-03-09T10:47:46.032Z,99.70
2019-03-09T10:50:19.466Z,98.50
2019-03-09T10:52:51.088Z,98.30
2019-03-09T10:55:22.249Z,93.60
2019-03-09T10:57:53.075Z,89.30
2019-03-09T11:00:26.800Z,93.30
2019-03-09T11:03:02.026Z,92.60
2019-03-09T11:05:37.971Z,93.60
2019-03-09T11:08:08.948Z,94.30
2019-03-09T11:10:41.162Z,92.10
2019-03-09T11:13:14.624Z,92.90
2019-03-09T11:15:48.764Z,93.50
2019-03-09T11:18:21.058Z,95.30
2019-03-09T11:20:52.144Z,95.50
2019-03-09T11:23:24.507Z,95.10
2019-03-09T11:25:58.200Z,95.40
2019-03-09T11:28:31.493Z,95.80
2019-03-09T11:31:02.192Z,96.90
2019-03-09T11:33:43.006Z,96.40
2019-03-09T11:36:20.185Z,95.90
2019-03-09T11:38:53.268Z,95.70
2019-03-09T11:41:26.293Z,95.10
2019-03-09T11:44:03.410Z,93.20
2019-03-09T11:46:41.818Z,93.30
2019-03-09T11:49:14.148Z,94.90
2019-03-09T11:51:47.725Z,95.60
2019-03-09T11:54:21.898Z,96.10
2019-03-09T11:56:52.665Z,97.00
2019-03-09T11:59:23.869Z,97.80
2019-03-09T12:01:54.989Z,97.00
2019-03-09T12:04:26.855Z,95.90
2019-03-09T12:06:57.936Z,85.70
2019-03-09T12:09:29.159Z,80.20
2019-03-09T12:12:07.173Z,82.60
2019-03-09T12:14:45.575Z,75.50
2019-03-09T12:17:16.453Z,73.90
2019-03-09T12:19:49.794Z,73.90
2019-03-09T12:22:23.994Z,75.30
2019-03-09T12:24:54.877Z,70.20
2019-03-09T12:27:25.759Z,75.60
2019-03-09T12:30:07.086Z,78.30
2019-03-09T12:32:38.149Z,74.60
2019-03-09T12:35:09.628Z,75.30
2019-03-09T12:37:40.784Z,77.40
2019-03-09T12:40:17.309Z,80.80
2019-03-09T12:42:48.381Z,85.10
2019-03-09T12:45:19.507Z,79.50
2019-03-09T12:47:52.887Z,85.00
2019-03-09T12:50:35.071Z,83.30
2019-03-09T12:53:08.922Z,83.40
2019-03-09T12:55:41.125Z,85.20
2019-03-09T12:58:14.022Z,83.90
2019-03-09T13:00:46.119Z,79.10
2019-03-09T13:03:17.682Z,74.10
2019-03-09T13:05:48.874Z,74.40
2019-03-09T13:08:19.888Z,79.00
2019-03-09T13:10:50.605Z,82.80
2019-03-09T13:13:21.645Z,82.90
2019-03-09T13:19:34.796Z,84.70
2019-03-09T13:22:08.125Z,86.10
2019-03-09T13:24:41.840Z,88.30
2019-03-09T13:31:09.788Z,87.80
2019-03-09T13:33:42.928Z,89.40
2019-03-09T13:36:13.758Z,88.90
2019-03-09T13:38:49.457Z,90.00
2019-03-09T13:41:24.317Z,89.50
2019-03-09T13:44:30.860Z,88.00
2019-03-09T13:47:04.394Z,90.20
2019-03-09T13:49:35.300Z,90.20
2019-03-09T13:52:05.972Z,90.50
2019-03-09T13:54:41.124Z,91.00
2019-03-09T13:57:14.364Z,92.00
2019-03-09T13:59:52.434Z,91.10
2019-03-09T14:06:07.573Z,91.10
2019-03-09T14:08:38.175Z,92.10
2019-03-09T14:11:11.377Z,92.50
2019-03-09T14:13:43.871Z,97.30
2019-03-09T14:16:14.500Z,99.90
2019-03-09T14:18:45.389Z,99.90
2019-03-09T14:21:19.109Z,99.50
2019-03-09T14:23:50.950Z,98.90
2019-03-09T14:26:25.780Z,98.20
2019-03-09T14:28:57.906Z,98.20
2019-03-09T14:31:31.526Z,98.50
2019-03-09T14:34:08.420Z,98.00
2019-03-09T14:36:41.444Z,97.30
2019-03-09T14:39:12.018Z,97.80
2019-03-09T14:41:47.360Z,97.40
2019-03-09T14:44:19.662Z,97.10
2019-03-09T14:46:53.132Z,97.10
2019-03-09T14:49:25.719Z,96.80
2019-03-09T14:51:57.942Z,97.30
2019-03-09T14:54:28.642Z,97.00
2019-03-09T14:56:59.372Z,96.70
2019-03-09T14:59:29.913Z,96.70
2019-03-09T15:02:02.376Z,96.20
2019-03-09T15:04:32.960Z,96.70
2019-03-09T15:07:08.061Z,96.80
2019-03-09T15:09:41.453Z,96.80
2019-03-09T15:12:12.190Z,97.30
2019-03-09T15:14:44.355Z,97.00
2019-03-09T15:17:17.515Z,97.30
2019-03-09T15:19:50.505Z,98.00
2019-03-09T15:22:25.897Z,98.50
2019-03-09T15:24:56.627Z,97.90
2019-03-09T15:27:31.317Z,98.00
2019-03-09T15:30:02.028Z,97.70
2019-03-09T15:32:34.213Z,98.50
2019-03-09T15:35:05.530Z,98.70
2019-03-09T15:37:36.233Z,99.60
2019-03-09T15:40:07.160Z,99.40
2019-03-09T15:42:37.827Z,99.90
2019-03-09T15:45:09.656Z,99.60
2019-03-09T15:47:40.271Z,99.70
2019-03-09T15:50:13.537Z,99.80
2019-03-09T15:52:44.208Z,99.90
2019-03-09T15:55:15.373Z,99.90
2019-03-09T15:57:45.956Z,99.90
2019-03-09T16:00:18.626Z,99.90
2019-03-09T16:02:49.366Z,98.60
2019-03-09T16:05:19.947Z,98.60
2019-03-09T16:07:53.238Z,98.10
2019-03-09T16:10:23.853Z,96.50
2019-03-09T16:12:54.516Z,95.80
2019-03-09T16:15:29.075Z,95.10
2019-03-09T16:18:04.638Z,95.60
2019-03-09T16:20:35.493Z,96.10
2019-03-09T16:23:06.049Z,97.60
2019-03-09T16:25:36.559Z,99.90
2019-03-09T16:28:09.959Z,99.90
2019-03-09T16:30:40.489Z,99.90
2019-03-09T16:33:14.861Z,99.90
2019-03-09T16:35:45.386Z,99.90
2019-03-09T16:38:17.172Z,99.90
2019-03-09T16:40:48.181Z,99.90
2019-03-09T16:43:22.896Z,99.90
2019-03-09T16:45:56.509Z,99.90
2019-03-09T16:48:28.925Z,99.90
2019-03-09T16:51:08.695Z,99.90
2019-03-09T16:53:41.147Z,99.90
2019-03-09T16:56:16.406Z,99.90
2019-03-09T16:58:48.977Z,99.90
2019-03-09T17:01:22.660Z,99.90
2019-03-09T17:03:53.177Z,99.90
2019-03-09T17:06:23.887Z,99.90
2019-03-09T17:08:54.358Z,99.90
2019-03-09T17:11:26.956Z,99.90
2019-03-09T17:13:57.774Z,99.90
2019-03-09T17:16:31.341Z,99.90
2019-03-09T17:19:02.938Z,99.90
2019-03-09T17:21:33.527Z,99.90
2019-03-09T17:24:04.799Z,99.90
2019-03-09T17:26:35.547Z,99.90
2019-03-09T17:29:06.050Z,99.90
2019-03-09T17:31:43.143Z,99.90
2019-03-09T17:34:14.744Z,99.90
2019-03-09T17:36:45.514Z,99.90
2019-03-09T17:39:17.075Z,99.90
2019-03-09T17:41:48.834Z,99.90
2019-03-09T17:44:22.997Z,99.90
2019-03-09T17:46:56.765Z,99.90
2019-03-09T17:49:31.907Z,99.90
2019-03-09T17:52:06.464Z,99.90
2019-03-09T17:54:37.210Z,99.90
2019-03-09T17:57:41.683Z,99.90
2019-03-09T18:00:17.239Z,99.90
2019-03-09T18:02:48.155Z,99.90
2019-03-09T18:05:23.209Z,99.90
2019-03-09T18:07:53.956Z,99.90
2019-03-09T18:10:31.574Z,99.90
2019-03-09T18:13:03.878Z,99.90
2019-03-09T18:15:40.048Z,99.90
2019-03-09T18:18:17.730Z,99.90
2019-03-09T18:20:51.848Z,99.90
2019-03-09T18:23:22.795Z,99.90
2019-03-09T18:25:53.553Z,99.90
2019-03-09T18:28:24.383Z,99.90
2019-03-09T18:30:54.983Z,99.90
2019-03-09T18:33:25.828Z,99.90
2019-03-09T18:36:01.339Z,99.90
2019-03-09T18:38:35.543Z,99.90
2019-03-09T18:41:07.426Z,99.90
2019-03-09T18:43:38.257Z,99.90
2019-03-09T18:46:09.479Z,99.90
2019-03-09T18:48:40.596Z,99.90
2019-03-09T18:51:23.549Z,99.90
2019-03-09T18:53:54.881Z,99.90
2019-03-09T18:56:33.845Z,99.90
2019-03-09T18:59:05.408Z,99.90
2019-03-09T19:01:36.233Z,99.90
2019-03-09T19:04:12.637Z,99.90
2019-03-09T19:06:46.170Z,99.90
2019-03-09T19:09:18.848Z,99.90
2019-03-09T19:11:50.695Z,99.90
2019-03-09T19:14:24.522Z,99.90
2019-03-09T19:17:02.271Z,99.90
2019-03-09T19:19:34.299Z,99.90
2019-03-09T19:22:11.025Z,99.90
2019-03-09T19:24:44.087Z,99.90
2019-03-09T19:27:16.152Z,99.90
2019-03-09T19:29:47.941Z,99.90
2019-03-09T19:32:18.598Z,99.90
2019-03-09T19:34:52.038Z,99.90
2019-03-09T19:37:22.910Z,99.90
2019-03-09T19:39:53.503Z,99.90
2019-03-09T19:42:24.439Z,99.90
2019-03-09T19:44:58.098Z,99.90
2019-03-09T19:47:34.811Z,99.90
2019-03-09T19:50:09.250Z,99.90
2019-03-09T19:52:42.284Z,99.90
2019-03-09T19:55:14.979Z,99.90
2019-03-09T19:57:45.999Z,99.90
2019-03-09T20:00:18.570Z,99.90
2019-03-09T20:02:51.168Z,99.90
2019-03-09T20:05:21.799Z,99.90
2019-03-09T20:11:37.520Z,99.90
2019-03-09T20:14:11.654Z,99.90
2019-03-09T20:16:44.156Z,99.90
2019-03-09T20:23:09.852Z,99.90
2019-03-09T20:25:41.312Z,99.90
2019-03-09T20:32:06.680Z,99.90
2019-03-09T20:34:38.831Z,99.90
2019-03-09T20:37:09.986Z,99.90
2019-03-09T20:39:41.069Z,99.90
2019-03-09T20:42:12.092Z,99.90
2019-03-09T20:44:42.857Z,99.90
2019-03-09T20:47:13.711Z,99.90
2019-03-09T20:49:44.856Z,99.90
2019-03-09T20:52:15.867Z,99.90
2019-03-09T20:54:46.812Z,99.90
2019-03-09T20:57:18.443Z,99.90
2019-03-09T20:59:49.311Z,99.90
2019-03-09T21:02:20.357Z,99.90
2019-03-09T21:04:51.085Z,99.90
2019-03-09T21:07:21.884Z,99.90
2019-03-09T21:09:52.656Z,99.90
2019-03-09T21:12:23.322Z,99.90
2019-03-09T21:14:54.085Z,99.90
2019-03-09T21:17:24.951Z,99.90
2019-03-09T21:19:55.894Z,99.90
2019-03-09T21:22:26.737Z,99.90
2019-03-09T21:24:57.289Z,99.90
2019-03-09T21:27:28.193Z,99.90
2019-03-09T21:29:59.712Z,99.90
2019-03-09T21:32:30.704Z,99.90
2019-03-09T21:35:01.520Z,99.90
2019-03-09T21:37:33.665Z,99.90
2019-03-09T21:44:10.954Z,99.90
2019-03-09T21:46:41.504Z,99.90
2019-03-09T21:49:12.319Z,99.90
2019-03-09T21:51:43.023Z,99.90
2019-03-09T21:54:13.602Z,99.90
2019-03-09T21:56:44.348Z,99.90
2019-03-09T21:59:15.555Z,99.90
2019-03-09T22:01:46.379Z,99.90
2019-03-09T22:04:17.088Z,99.90
2019-03-09T22:06:47.617Z,99.90
2019-03-09T22:09:18.645Z,99.90
2019-03-09T22:11:49.595Z,99.90
2019-03-09T22:14:20.439Z,99.90
2019-03-09T22:16:56.581Z,99.90
2019-03-09T22:19:23.358Z,99.90
2019-03-09T22:21:53.980Z,99.90
2019-03-09T22:24:24.665Z,99.90
2019-03-09T22:26:56.623Z,99.90
2019-03-09T22:29:27.304Z,99.90
2019-03-09T22:31:58.279Z,99.90
2019-03-09T22:34:29.068Z,99.90
2019-03-09T22:36:59.620Z,99.90
2019-03-09T22:39:30.472Z,99.90
2019-03-09T22:42:01.053Z,99.90
2019-03-09T22:44:32.921Z,99.90
2019-03-09T22:47:11.191Z,99.90
2019-03-09T22:49:38.413Z,99.90
2019-03-09T22:52:14.223Z,99.90
2019-03-09T22:54:49.374Z,99.90
2019-03-09T22:57:21.885Z,99.90
2019-03-09T22:59:52.916Z,99.90
2019-03-09T23:02:30.789Z,99.90
2019-03-09T23:05:03.664Z,99.90
2019-03-09T23:07:36.007Z,99.90
2019-03-09T23:10:08.941Z,99.90
2019-03-09T23:12:39.743Z,99.90
2019-03-09T23:15:11.947Z,99.90
2019-03-09T23:17:42.546Z,99.90
2019-03-09T23:20:15.548Z,99.90
2019-03-09T23:22:48.912Z,99.90
2019-03-09T23:25:19.677Z,99.90
2019-03-09T23:27:50.672Z,99.90
2019-03-09T23:30:23.718Z,99.90
2019-03-09T23:32:58.291Z,99.90
2019-03-09T23:35:28.793Z,99.90
2019-03-09T23:38:00.276Z,99.90
2019-03-09T23:40:31.064Z,99.90
2019-03-09T23:43:01.771Z,99.90
2019-03-09T23:45:32.362Z,99.90
2019-03-09T23:48:04.281Z,99.90
2019-03-09T23:50:35.011Z,99.90
2019-03-09T23:53:10.071Z,99.90
2019-03-09T23:55:41.736Z,99.90
2019-03-09T23:58:13.345Z,99.90
